AVA650 MSLP-MMUN
Flight info
| Callsign | AVA650 |
|---|---|
| Flight time | 1h 22m |
| Altitude | 35000 |
| Route | URNO2W URNOS UB764 ANEPU DCT PAULE PAUL3H |
| Aircraft | A20N/M-VGDW/C |
Departure
| Time | 2026-04-27 22:55 |
|---|---|
| Airport | El Salvador International Airport Saint Óscar Arnulfo Romero y Galdámez (MSLP) |
Arrival
| Time | 2026-04-28 00:18 |
|---|---|
| Airport | Cancún International Airport (MMUN) |
| Time | Latitude | Longitude | Altitude | Speed | Heading |
|---|---|---|---|---|---|
| 2026-04-27 22:44 | 13.44427 | -89.05636 | 97 ft | 0 kts | 341° |
| 2026-04-27 22:48 | 13.44425 | -89.05636 | 97 ft | 3 kts | 341° |
| 2026-04-27 22:48 | 13.44407 | -89.05630 | 98 ft | 3 kts | 341° |
| 2026-04-27 22:48 | 13.44389 | -89.05624 | 97 ft | 3 kts | 341° |
| 2026-04-27 22:49 | 13.44372 | -89.05620 | 96 ft | 3 kts | 28° |
| 2026-04-27 22:49 | 13.44363 | -89.05628 | 96 ft | 0 kts | 67° |
| 2026-04-27 22:51 | 13.44364 | -89.05626 | 96 ft | 2 kts | 67° |
| 2026-04-27 22:51 | 13.44369 | -89.05608 | 96 ft | 5 kts | 73° |
| 2026-04-27 22:51 | 13.44387 | -89.05549 | 99 ft | 11 kts | 73° |
| 2026-04-27 22:51 | 13.44408 | -89.05475 | 100 ft | 10 kts | 73° |
| 2026-04-27 22:52 | 13.44395 | -89.05399 | 100 ft | 14 kts | 134° |
| 2026-04-27 22:52 | 13.44379 | -89.05300 | 100 ft | 17 kts | 70° |
| 2026-04-27 22:52 | 13.44425 | -89.05172 | 101 ft | 20 kts | 70° |
| 2026-04-27 22:52 | 13.44473 | -89.05038 | 102 ft | 21 kts | 69° |
| 2026-04-27 22:53 | 13.44531 | -89.04880 | 103 ft | 24 kts | 70° |
| 2026-04-27 22:53 | 13.44586 | -89.04720 | 106 ft | 23 kts | 70° |
| 2026-04-27 22:53 | 13.44638 | -89.04571 | 107 ft | 22 kts | 70° |
| 2026-04-27 22:53 | 13.44690 | -89.04428 | 108 ft | 21 kts | 68° |
| 2026-04-27 22:54 | 13.44735 | -89.04295 | 110 ft | 19 kts | 88° |
| 2026-04-27 22:54 | 13.44649 | -89.04216 | 110 ft | 17 kts | 157° |
| 2026-04-27 22:54 | 13.44580 | -89.04231 | 111 ft | 8 kts | 248° |
| 2026-04-27 22:54 | 13.44498 | -89.04456 | 106 ft | 66 kts | 250° |
| 2026-04-27 22:55 | 13.44271 | -89.05083 | 103 ft | 120 kts | 250° |
| 2026-04-27 22:55 | 13.43917 | -89.06036 | 122 ft | 159 kts | 247° |
| 2026-04-27 22:55 | 13.43557 | -89.07078 | 713 ft | 151 kts | 249° |
| 2026-04-27 22:55 | 13.43189 | -89.08145 | 973 ft | 169 kts | 247° |
| 2026-04-27 22:56 | 13.42767 | -89.09312 | 1381 ft | 183 kts | 248° |
| 2026-04-27 22:56 | 13.42291 | -89.10626 | 1781 ft | 206 kts | 248° |
| 2026-04-27 22:56 | 13.41794 | -89.12061 | 2301 ft | 219 kts | 250° |
| 2026-04-27 22:56 | 13.41405 | -89.13627 | 2816 ft | 235 kts | 258° |
| 2026-04-27 22:57 | 13.41228 | -89.15339 | 3455 ft | 248 kts | 268° |
| 2026-04-27 22:57 | 13.41319 | -89.17133 | 4059 ft | 261 kts | 278° |
| 2026-04-27 22:57 | 13.41725 | -89.18990 | 4661 ft | 273 kts | 288° |
| 2026-04-27 22:57 | 13.42471 | -89.20812 | 5314 ft | 279 kts | 299° |
| 2026-04-27 22:58 | 13.43513 | -89.22513 | 6048 ft | 283 kts | 307° |
| 2026-04-27 22:58 | 13.44674 | -89.24159 | 6768 ft | 285 kts | 309° |
| 2026-04-27 22:58 | 13.45895 | -89.25759 | 7574 ft | 283 kts | 315° |
| 2026-04-27 22:58 | 13.47320 | -89.27146 | 8353 ft | 282 kts | 326° |
| 2026-04-27 22:59 | 13.48978 | -89.28208 | 9141 ft | 281 kts | 338° |
| 2026-04-27 22:59 | 13.50803 | -89.28886 | 9975 ft | 276 kts | 349° |
| 2026-04-27 22:59 | 13.52693 | -89.29171 | 10579 ft | 282 kts | 0° |
| 2026-04-27 22:59 | 13.54678 | -89.29033 | 11046 ft | 291 kts | 12° |
| 2026-04-27 23:00 | 13.58597 | -89.27620 | 12030 ft | 310 kts | 24° |
| 2026-04-27 23:00 | 13.60616 | -89.26716 | 12436 ft | 322 kts | 24° |
| 2026-04-27 23:00 | 13.62693 | -89.25790 | 12985 ft | 328 kts | 24° |
| 2026-04-27 23:01 | 13.64811 | -89.24853 | 13568 ft | 334 kts | 24° |
| 2026-04-27 23:01 | 13.66967 | -89.23906 | 14136 ft | 339 kts | 24° |
| 2026-04-27 23:01 | 13.69148 | -89.22952 | 14734 ft | 342 kts | 24° |
| 2026-04-27 23:01 | 13.71351 | -89.21991 | 15369 ft | 344 kts | 24° |
| 2026-04-27 23:02 | 13.73538 | -89.21036 | 15965 ft | 347 kts | 24° |
| 2026-04-27 23:02 | 13.75779 | -89.20058 | 16567 ft | 351 kts | 24° |
| 2026-04-27 23:02 | 13.78037 | -89.19073 | 17159 ft | 354 kts | 24° |
| 2026-04-27 23:02 | 13.80319 | -89.18078 | 17724 ft | 357 kts | 24° |
| 2026-04-27 23:03 | 13.82627 | -89.17071 | 18148 ft | 364 kts | 24° |
| 2026-04-27 23:03 | 13.84997 | -89.16037 | 18438 ft | 373 kts | 24° |
| 2026-04-27 23:03 | 13.87404 | -89.14986 | 18842 ft | 376 kts | 24° |
| 2026-04-27 23:03 | 13.89789 | -89.13946 | 19292 ft | 378 kts | 23° |
| 2026-04-27 23:04 | 13.92222 | -89.12884 | 19708 ft | 381 kts | 24° |
| 2026-04-27 23:04 | 13.94680 | -89.11811 | 20123 ft | 385 kts | 24° |
| 2026-04-27 23:04 | 13.97153 | -89.10731 | 20564 ft | 387 kts | 24° |
| 2026-04-27 23:04 | 13.99648 | -89.09642 | 21022 ft | 390 kts | 24° |
| 2026-04-27 23:05 | 14.02155 | -89.08548 | 21499 ft | 392 kts | 24° |
| 2026-04-27 23:05 | 14.04682 | -89.07447 | 21961 ft | 395 kts | 24° |
| 2026-04-27 23:05 | 14.07216 | -89.06343 | 22458 ft | 397 kts | 24° |
| 2026-04-27 23:05 | 14.09740 | -89.05242 | 22927 ft | 400 kts | 24° |
| 2026-04-27 23:06 | 14.12346 | -89.04106 | 23415 ft | 403 kts | 24° |
| 2026-04-27 23:06 | 14.14902 | -89.02991 | 23837 ft | 405 kts | 24° |
| 2026-04-27 23:06 | 14.17512 | -89.01852 | 24234 ft | 408 kts | 23° |
| 2026-04-27 23:06 | 14.20138 | -89.00707 | 24605 ft | 411 kts | 23° |
| 2026-04-27 23:07 | 14.22776 | -88.99556 | 25094 ft | 411 kts | 23° |
| 2026-04-27 23:07 | 14.25405 | -88.98408 | 25581 ft | 412 kts | 23° |
| 2026-04-27 23:07 | 14.28053 | -88.97252 | 25959 ft | 413 kts | 23° |
| 2026-04-27 23:07 | 14.30692 | -88.96122 | 26271 ft | 417 kts | 21° |
| 2026-04-27 23:08 | 14.33455 | -88.95191 | 26692 ft | 418 kts | 16° |
| 2026-04-27 23:08 | 14.36272 | -88.94395 | 27072 ft | 421 kts | 14° |
| 2026-04-27 23:08 | 14.39118 | -88.93663 | 27487 ft | 422 kts | 13° |
| 2026-04-27 23:08 | 14.41987 | -88.92957 | 27827 ft | 425 kts | 13° |
| 2026-04-27 23:09 | 14.44880 | -88.92253 | 28179 ft | 427 kts | 13° |
| 2026-04-27 23:09 | 14.47789 | -88.91542 | 28540 ft | 429 kts | 13° |
| 2026-04-27 23:09 | 14.50702 | -88.90822 | 28881 ft | 432 kts | 13° |
| 2026-04-27 23:09 | 14.53595 | -88.90100 | 29226 ft | 434 kts | 13° |
| 2026-04-27 23:10 | 14.56542 | -88.89360 | 29538 ft | 436 kts | 13° |
| 2026-04-27 23:10 | 14.59499 | -88.88614 | 29883 ft | 438 kts | 13° |
| 2026-04-27 23:10 | 14.62472 | -88.87862 | 30187 ft | 441 kts | 12° |
| 2026-04-27 23:10 | 14.65462 | -88.87105 | 30457 ft | 443 kts | 12° |
| 2026-04-27 23:11 | 14.68466 | -88.86344 | 30745 ft | 444 kts | 12° |
| 2026-04-27 23:11 | 14.71460 | -88.85586 | 31145 ft | 443 kts | 12° |
| 2026-04-27 23:11 | 14.74453 | -88.84829 | 31451 ft | 444 kts | 12° |
| 2026-04-27 23:11 | 14.77463 | -88.84067 | 31709 ft | 446 kts | 12° |
| 2026-04-27 23:12 | 14.80438 | -88.83314 | 32049 ft | 446 kts | 12° |
| 2026-04-27 23:12 | 14.83454 | -88.82550 | 32380 ft | 446 kts | 12° |
| 2026-04-27 23:12 | 14.86470 | -88.81786 | 32700 ft | 446 kts | 12° |
| 2026-04-27 23:12 | 14.89482 | -88.81023 | 33032 ft | 446 kts | 12° |
| 2026-04-27 23:13 | 14.92504 | -88.80258 | 33280 ft | 447 kts | 12° |
| 2026-04-27 23:13 | 14.95530 | -88.79491 | 33578 ft | 447 kts | 12° |
| 2026-04-27 23:13 | 14.98558 | -88.78723 | 33904 ft | 447 kts | 12° |
| 2026-04-27 23:13 | 15.01539 | -88.77967 | 34205 ft | 447 kts | 12° |
| 2026-04-27 23:14 | 15.04597 | -88.77191 | 34468 ft | 447 kts | 12° |
| 2026-04-27 23:14 | 15.07576 | -88.76434 | 34697 ft | 447 kts | 12° |
| 2026-04-27 23:14 | 15.10600 | -88.75667 | 34936 ft | 447 kts | 12° |
| 2026-04-27 23:14 | 15.13630 | -88.74898 | 34998 ft | 448 kts | 12° |
| 2026-04-27 23:15 | 15.19716 | -88.73349 | 35012 ft | 453 kts | 12° |
| 2026-04-27 23:15 | 15.25883 | -88.71721 | 34978 ft | 459 kts | 13° |
| 2026-04-27 23:16 | 15.32029 | -88.70066 | 34974 ft | 458 kts | 13° |
| 2026-04-27 23:16 | 15.38186 | -88.68408 | 34942 ft | 457 kts | 13° |
| 2026-04-27 23:17 | 15.44339 | -88.66755 | 34942 ft | 456 kts | 13° |
| 2026-04-27 23:17 | 15.50495 | -88.65105 | 34904 ft | 456 kts | 13° |
| 2026-04-27 23:18 | 15.56609 | -88.63464 | 34906 ft | 456 kts | 13° |
| 2026-04-27 23:18 | 15.62765 | -88.61811 | 34905 ft | 456 kts | 13° |
| 2026-04-27 23:19 | 15.68919 | -88.60158 | 34877 ft | 454 kts | 13° |
| 2026-04-27 23:19 | 15.75009 | -88.58733 | 34879 ft | 451 kts | 8° |
| 2026-04-27 23:20 | 15.81208 | -88.57717 | 34866 ft | 451 kts | 7° |
| 2026-04-27 23:20 | 15.87422 | -88.56780 | 34867 ft | 451 kts | 7° |
| 2026-04-27 23:21 | 15.93635 | -88.55854 | 34871 ft | 451 kts | 7° |
| 2026-04-27 23:21 | 15.99838 | -88.54922 | 34873 ft | 451 kts | 7° |
| 2026-04-27 23:22 | 16.06002 | -88.53989 | 34870 ft | 448 kts | 7° |
| 2026-04-27 23:22 | 16.12163 | -88.53055 | 34875 ft | 447 kts | 7° |
| 2026-04-27 23:23 | 16.18326 | -88.52120 | 34875 ft | 447 kts | 7° |
| 2026-04-27 23:23 | 16.23456 | -88.51342 | 34887 ft | 447 kts | 7° |
| 2026-04-27 23:24 | 16.29623 | -88.50406 | 34884 ft | 447 kts | 7° |
| 2026-04-27 23:24 | 16.35784 | -88.49470 | 34899 ft | 447 kts | 7° |
| 2026-04-27 23:25 | 16.41943 | -88.48534 | 34897 ft | 446 kts | 7° |
| 2026-04-27 23:25 | 16.48089 | -88.47599 | 34897 ft | 446 kts | 7° |
| 2026-04-27 23:26 | 16.54200 | -88.46669 | 34910 ft | 447 kts | 7° |
| 2026-04-27 23:26 | 16.60384 | -88.45728 | 34908 ft | 449 kts | 7° |
| 2026-04-27 23:27 | 16.66577 | -88.44784 | 34922 ft | 449 kts | 7° |
| 2026-04-27 23:27 | 16.72764 | -88.43840 | 34922 ft | 449 kts | 7° |
| 2026-04-27 23:28 | 16.78939 | -88.42898 | 34934 ft | 448 kts | 7° |
| 2026-04-27 23:28 | 16.85070 | -88.41962 | 34932 ft | 448 kts | 7° |
| 2026-04-27 23:29 | 16.91243 | -88.41040 | 34938 ft | 448 kts | 7° |
| 2026-04-27 23:29 | 16.97419 | -88.40154 | 34940 ft | 447 kts | 7° |
| 2026-04-27 23:30 | 17.03591 | -88.39273 | 34942 ft | 448 kts | 7° |
| 2026-04-27 23:30 | 17.09763 | -88.38389 | 34940 ft | 448 kts | 7° |
| 2026-04-27 23:31 | 17.15890 | -88.37478 | 34939 ft | 448 kts | 7° |
| 2026-04-27 23:31 | 17.22047 | -88.36498 | 34931 ft | 448 kts | 7° |
| 2026-04-27 23:32 | 17.28216 | -88.35506 | 34927 ft | 448 kts | 7° |
| 2026-04-27 23:32 | 17.34375 | -88.34520 | 34928 ft | 448 kts | 7° |
| 2026-04-27 23:33 | 17.40543 | -88.33538 | 34934 ft | 448 kts | 7° |
| 2026-04-27 23:33 | 17.46702 | -88.32557 | 34934 ft | 447 kts | 7° |
| 2026-04-27 23:34 | 17.52835 | -88.31462 | 34934 ft | 448 kts | 13° |
| 2026-04-27 23:34 | 17.58673 | -88.29272 | 34928 ft | 449 kts | 20° |
| 2026-04-27 23:35 | 17.64434 | -88.26698 | 34933 ft | 450 kts | 21° |
| 2026-04-27 23:35 | 17.70162 | -88.24052 | 34933 ft | 450 kts | 22° |
| 2026-04-27 23:36 | 17.75903 | -88.21407 | 34933 ft | 450 kts | 21° |
| 2026-04-27 23:36 | 17.81644 | -88.18778 | 34933 ft | 450 kts | 21° |
| 2026-04-27 23:37 | 17.87393 | -88.16152 | 34939 ft | 450 kts | 21° |
| 2026-04-27 23:37 | 17.93134 | -88.13515 | 34944 ft | 450 kts | 22° |
| 2026-04-27 23:38 | 17.98802 | -88.10814 | 34944 ft | 450 kts | 22° |
| 2026-04-27 23:38 | 18.04492 | -88.08068 | 34950 ft | 451 kts | 22° |
| 2026-04-27 23:39 | 18.10208 | -88.05313 | 34946 ft | 453 kts | 22° |
| 2026-04-27 23:39 | 18.15945 | -88.02559 | 34952 ft | 453 kts | 22° |
| 2026-04-27 23:40 | 18.21705 | -87.99855 | 34955 ft | 453 kts | 22° |
| 2026-04-27 23:40 | 18.27471 | -87.97168 | 34955 ft | 453 kts | 22° |
| 2026-04-27 23:41 | 18.33246 | -87.94503 | 34952 ft | 452 kts | 18° |
| 2026-04-27 23:41 | 18.39137 | -87.92316 | 34955 ft | 451 kts | 17° |
| 2026-04-27 23:42 | 18.45093 | -87.90172 | 34957 ft | 451 kts | 17° |
| 2026-04-27 23:42 | 18.51034 | -87.88042 | 34958 ft | 451 kts | 17° |
| 2026-04-27 23:43 | 18.56981 | -87.85912 | 34963 ft | 451 kts | 17° |
| 2026-04-27 23:43 | 18.62927 | -87.83781 | 34963 ft | 451 kts | 17° |
| 2026-04-27 23:44 | 18.68839 | -87.81661 | 34963 ft | 451 kts | 17° |
| 2026-04-27 23:44 | 18.74789 | -87.79526 | 34963 ft | 451 kts | 17° |
| 2026-04-27 23:45 | 18.80739 | -87.77389 | 34966 ft | 451 kts | 17° |
| 2026-04-27 23:45 | 18.86689 | -87.75250 | 34966 ft | 451 kts | 17° |
| 2026-04-27 23:46 | 18.92638 | -87.73110 | 34966 ft | 452 kts | 17° |
| 2026-04-27 23:46 | 18.98544 | -87.70984 | 34966 ft | 447 kts | 17° |
| 2026-04-27 23:47 | 19.04380 | -87.68881 | 34746 ft | 442 kts | 17° |
| 2026-04-27 23:47 | 19.07294 | -87.67831 | 34407 ft | 441 kts | 17° |
| 2026-04-27 23:47 | 19.10198 | -87.66784 | 34078 ft | 441 kts | 17° |
| 2026-04-27 23:48 | 19.13109 | -87.65734 | 33701 ft | 440 kts | 17° |
| 2026-04-27 23:48 | 19.16005 | -87.64690 | 33315 ft | 440 kts | 17° |
| 2026-04-27 23:48 | 19.18910 | -87.63641 | 32931 ft | 440 kts | 17° |
| 2026-04-27 23:48 | 19.21798 | -87.62598 | 32541 ft | 439 kts | 17° |
| 2026-04-27 23:49 | 19.24695 | -87.61552 | 32177 ft | 439 kts | 16° |
| 2026-04-27 23:49 | 19.27583 | -87.60508 | 31816 ft | 438 kts | 16° |
| 2026-04-27 23:49 | 19.30437 | -87.59477 | 31462 ft | 438 kts | 16° |
| 2026-04-27 23:49 | 19.33319 | -87.58435 | 31104 ft | 437 kts | 16° |
| 2026-04-27 23:50 | 19.36204 | -87.57391 | 30753 ft | 437 kts | 16° |
| 2026-04-27 23:50 | 19.39080 | -87.56350 | 30409 ft | 436 kts | 16° |
| 2026-04-27 23:50 | 19.41956 | -87.55309 | 30068 ft | 436 kts | 16° |
| 2026-04-27 23:50 | 19.44828 | -87.54269 | 29664 ft | 435 kts | 16° |
| 2026-04-27 23:51 | 19.47686 | -87.53233 | 29262 ft | 432 kts | 16° |
| 2026-04-27 23:51 | 19.50526 | -87.52203 | 28866 ft | 429 kts | 16° |
| 2026-04-27 23:51 | 19.53341 | -87.51183 | 28479 ft | 425 kts | 16° |
| 2026-04-27 23:51 | 19.56124 | -87.50173 | 28096 ft | 421 kts | 16° |
| 2026-04-27 23:52 | 19.58855 | -87.49182 | 27720 ft | 418 kts | 16° |
| 2026-04-27 23:52 | 19.61603 | -87.48185 | 27346 ft | 416 kts | 16° |
| 2026-04-27 23:52 | 19.64350 | -87.47187 | 26975 ft | 415 kts | 16° |
| 2026-04-27 23:52 | 19.67082 | -87.46196 | 26604 ft | 414 kts | 17° |
| 2026-04-27 23:53 | 19.69809 | -87.45205 | 26248 ft | 413 kts | 17° |
| 2026-04-27 23:53 | 19.72521 | -87.44219 | 25894 ft | 411 kts | 17° |
| 2026-04-27 23:53 | 19.75223 | -87.43237 | 25540 ft | 410 kts | 17° |
| 2026-04-27 23:53 | 19.77918 | -87.42257 | 25195 ft | 409 kts | 17° |
| 2026-04-27 23:54 | 19.80569 | -87.41280 | 24863 ft | 408 kts | 19° |
| 2026-04-27 23:54 | 19.83103 | -87.39905 | 24528 ft | 410 kts | 28° |
| 2026-04-27 23:54 | 19.85514 | -87.38285 | 24194 ft | 410 kts | 30° |
| 2026-04-27 23:54 | 19.87900 | -87.36630 | 23828 ft | 409 kts | 31° |
| 2026-04-27 23:55 | 19.90279 | -87.34979 | 23401 ft | 408 kts | 31° |
| 2026-04-27 23:55 | 19.92655 | -87.33336 | 22962 ft | 406 kts | 31° |
| 2026-04-27 23:55 | 19.95014 | -87.31709 | 22530 ft | 403 kts | 31° |
| 2026-04-27 23:55 | 19.97359 | -87.30095 | 22107 ft | 400 kts | 31° |
| 2026-04-27 23:56 | 19.99696 | -87.28488 | 21674 ft | 397 kts | 31° |
| 2026-04-27 23:56 | 20.02007 | -87.26898 | 21270 ft | 395 kts | 31° |
| 2026-04-27 23:56 | 20.04306 | -87.25318 | 20884 ft | 392 kts | 31° |
| 2026-04-27 23:56 | 20.06592 | -87.23746 | 20504 ft | 390 kts | 31° |
| 2026-04-27 23:57 | 20.08860 | -87.22186 | 20126 ft | 387 kts | 31° |
| 2026-04-27 23:57 | 20.11119 | -87.20632 | 19753 ft | 385 kts | 31° |
| 2026-04-27 23:57 | 20.13357 | -87.19091 | 19391 ft | 383 kts | 31° |
| 2026-04-27 23:57 | 20.15564 | -87.17572 | 19030 ft | 380 kts | 31° |
| 2026-04-27 23:58 | 20.17781 | -87.16045 | 18667 ft | 378 kts | 31° |
| 2026-04-27 23:58 | 20.19985 | -87.14526 | 18323 ft | 376 kts | 31° |
| 2026-04-27 23:58 | 20.22172 | -87.13019 | 17914 ft | 374 kts | 31° |
| 2026-04-27 23:58 | 20.24352 | -87.11516 | 17513 ft | 371 kts | 31° |
| 2026-04-27 23:59 | 20.26516 | -87.10024 | 17109 ft | 369 kts | 31° |
| 2026-04-27 23:59 | 20.28663 | -87.08543 | 16717 ft | 366 kts | 31° |
| 2026-04-27 23:59 | 20.30796 | -87.07071 | 16327 ft | 363 kts | 31° |
| 2026-04-27 23:59 | 20.32908 | -87.05613 | 15942 ft | 359 kts | 31° |
| 2026-04-28 00:00 | 20.34962 | -87.04194 | 15567 ft | 352 kts | 31° |
| 2026-04-28 00:00 | 20.36995 | -87.02789 | 15195 ft | 345 kts | 31° |
| 2026-04-28 00:00 | 20.38988 | -87.01412 | 14829 ft | 339 kts | 31° |
| 2026-04-28 00:00 | 20.40954 | -87.00053 | 14474 ft | 335 kts | 32° |
| 2026-04-28 00:01 | 20.42908 | -86.98702 | 14115 ft | 333 kts | 32° |
| 2026-04-28 00:01 | 20.44848 | -86.97361 | 13750 ft | 331 kts | 32° |
| 2026-04-28 00:01 | 20.46778 | -86.96026 | 13335 ft | 330 kts | 32° |
| 2026-04-28 00:01 | 20.48695 | -86.94700 | 12946 ft | 328 kts | 32° |
| 2026-04-28 00:02 | 20.50610 | -86.93374 | 12548 ft | 326 kts | 32° |
| 2026-04-28 00:02 | 20.52486 | -86.92075 | 12164 ft | 324 kts | 32° |
| 2026-04-28 00:02 | 20.54375 | -86.90766 | 11779 ft | 323 kts | 32° |
| 2026-04-28 00:02 | 20.56249 | -86.89468 | 11397 ft | 318 kts | 32° |
| 2026-04-28 00:03 | 20.58094 | -86.88189 | 11025 ft | 312 kts | 32° |
| 2026-04-28 00:03 | 20.59901 | -86.86936 | 10652 ft | 307 kts | 32° |
| 2026-04-28 00:03 | 20.61681 | -86.85702 | 10283 ft | 303 kts | 32° |
| 2026-04-28 00:03 | 20.63424 | -86.84492 | 10040 ft | 294 kts | 32° |
| 2026-04-28 00:04 | 20.65105 | -86.83326 | 9857 ft | 283 kts | 32° |
| 2026-04-28 00:04 | 20.68348 | -86.81074 | 9165 ft | 274 kts | 32° |
| 2026-04-28 00:04 | 20.69937 | -86.79971 | 8819 ft | 270 kts | 32° |
| 2026-04-28 00:05 | 20.71485 | -86.78896 | 8480 ft | 267 kts | 33° |
| 2026-04-28 00:05 | 20.73036 | -86.77819 | 8140 ft | 265 kts | 33° |
| 2026-04-28 00:05 | 20.74577 | -86.76748 | 7891 ft | 264 kts | 33° |
| 2026-04-28 00:05 | 20.75616 | -86.76025 | 7790 ft | 265 kts | 33° |
| 2026-04-28 00:06 | 20.77708 | -86.74571 | 7594 ft | 274 kts | 33° |
| 2026-04-28 00:06 | 20.79327 | -86.73472 | 7451 ft | 275 kts | 29° |
| 2026-04-28 00:06 | 20.81123 | -86.72788 | 7305 ft | 275 kts | 7° |
| 2026-04-28 00:06 | 20.83009 | -86.73010 | 7158 ft | 276 kts | 340° |
| 2026-04-28 00:07 | 20.84603 | -86.74157 | 7039 ft | 280 kts | 317° |
| 2026-04-28 00:07 | 20.85892 | -86.75717 | 6894 ft | 282 kts | 309° |
| 2026-04-28 00:07 | 20.87022 | -86.77438 | 6759 ft | 283 kts | 305° |
| 2026-04-28 00:07 | 20.88059 | -86.79197 | 6621 ft | 283 kts | 303° |
| 2026-04-28 00:08 | 20.89090 | -86.80995 | 6479 ft | 283 kts | 303° |
| 2026-04-28 00:08 | 20.90128 | -86.82783 | 6337 ft | 282 kts | 304° |
| 2026-04-28 00:08 | 20.91180 | -86.84550 | 6185 ft | 282 kts | 304° |
| 2026-04-28 00:08 | 20.92247 | -86.86302 | 6039 ft | 281 kts | 305° |
| 2026-04-28 00:09 | 20.93325 | -86.88043 | 5901 ft | 280 kts | 306° |
| 2026-04-28 00:09 | 20.94410 | -86.89779 | 5735 ft | 280 kts | 306° |
| 2026-04-28 00:09 | 20.95495 | -86.91510 | 5521 ft | 280 kts | 306° |
| 2026-04-28 00:09 | 20.96579 | -86.93237 | 5286 ft | 279 kts | 306° |
| 2026-04-28 00:10 | 20.97665 | -86.94969 | 5052 ft | 279 kts | 306° |
| 2026-04-28 00:10 | 20.98379 | -86.96109 | 4892 ft | 279 kts | 306° |
| 2026-04-28 00:10 | 20.99806 | -86.98387 | 4569 ft | 278 kts | 306° |
| 2026-04-28 00:10 | 21.00885 | -87.00109 | 4326 ft | 278 kts | 305° |
| 2026-04-28 00:11 | 21.01964 | -87.01830 | 4087 ft | 278 kts | 305° |
| 2026-04-28 00:11 | 21.02689 | -87.02989 | 3983 ft | 277 kts | 305° |
| 2026-04-28 00:11 | 21.03749 | -87.04683 | 3859 ft | 277 kts | 305° |
| 2026-04-28 00:11 | 21.04824 | -87.06399 | 3733 ft | 278 kts | 305° |
| 2026-04-28 00:12 | 21.06024 | -87.08014 | 3613 ft | 275 kts | 321° |
| 2026-04-28 00:12 | 21.07635 | -87.08956 | 3488 ft | 257 kts | 349° |
| 2026-04-28 00:12 | 21.09335 | -87.08938 | 3381 ft | 240 kts | 20° |
| 2026-04-28 00:12 | 21.10736 | -87.07979 | 3250 ft | 242 kts | 51° |
| 2026-04-28 00:13 | 21.11649 | -87.06517 | 3121 ft | 230 kts | 62° |
| 2026-04-28 00:13 | 21.12388 | -87.05042 | 3016 ft | 217 kts | 64° |
| 2026-04-28 00:13 | 21.13038 | -87.03690 | 3009 ft | 196 kts | 66° |
| 2026-04-28 00:13 | 21.13421 | -87.02346 | 2952 ft | 186 kts | 90° |
| 2026-04-28 00:14 | 21.13215 | -87.00992 | 2764 ft | 185 kts | 106° |
| 2026-04-28 00:14 | 21.12697 | -86.99743 | 2506 ft | 184 kts | 120° |
| 2026-04-28 00:14 | 21.11992 | -86.98600 | 2265 ft | 183 kts | 124° |
| 2026-04-28 00:14 | 21.11280 | -86.97474 | 2029 ft | 181 kts | 123° |
| 2026-04-28 00:15 | 21.10584 | -86.96348 | 1798 ft | 182 kts | 123° |
| 2026-04-28 00:15 | 21.09891 | -86.95235 | 1560 ft | 175 kts | 123° |
| 2026-04-28 00:15 | 21.09247 | -86.94205 | 1350 ft | 161 kts | 123° |
| 2026-04-28 00:15 | 21.08665 | -86.93273 | 1163 ft | 142 kts | 122° |
| 2026-04-28 00:16 | 21.08129 | -86.92412 | 979 ft | 137 kts | 121° |
| 2026-04-28 00:16 | 21.07605 | -86.91569 | 815 ft | 136 kts | 122° |
| 2026-04-28 00:16 | 21.07080 | -86.90725 | 642 ft | 136 kts | 122° |
| 2026-04-28 00:16 | 21.06556 | -86.89881 | 439 ft | 137 kts | 123° |
| 2026-04-28 00:17 | 21.06029 | -86.89032 | 223 ft | 136 kts | 123° |
| 2026-04-28 00:17 | 21.05498 | -86.88180 | 64 ft | 137 kts | 122° |
| 2026-04-28 00:17 | 21.05008 | -86.87395 | 27 ft | 108 kts | 124° |
| 2026-04-28 00:17 | 21.04687 | -86.86881 | 25 ft | 65 kts | 123° |
| 2026-04-28 00:18 | 21.04471 | -86.86540 | 26 ft | 38 kts | 126° |
| 2026-04-28 00:18 | 21.04348 | -86.86419 | 22 ft | 23 kts | 143° |
| 2026-04-28 00:18 | 21.04210 | -86.86341 | 21 ft | 22 kts | 155° |
| 2026-04-28 00:18 | 21.04088 | -86.86244 | 21 ft | 22 kts | 124° |
| 2026-04-28 00:19 | 21.03976 | -86.86260 | 21 ft | 17 kts | 213° |
| 2026-04-28 00:19 | 21.03874 | -86.86331 | 21 ft | 18 kts | 213° |
| 2026-04-28 00:19 | 21.03772 | -86.86403 | 21 ft | 18 kts | 213° |
| 2026-04-28 00:19 | 21.03669 | -86.86476 | 22 ft | 18 kts | 213° |
| 2026-04-28 00:20 | 21.03565 | -86.86551 | 21 ft | 18 kts | 214° |
| 2026-04-28 00:20 | 21.03460 | -86.86625 | 21 ft | 18 kts | 213° |
| 2026-04-28 00:20 | 21.03353 | -86.86699 | 21 ft | 18 kts | 213° |
| 2026-04-28 00:20 | 21.03291 | -86.86797 | 21 ft | 17 kts | 292° |
| 2026-04-28 00:21 | 21.03352 | -86.86900 | 21 ft | 16 kts | 304° |
| 2026-04-28 00:21 | 21.03415 | -86.87000 | 22 ft | 16 kts | 304° |
| 2026-04-28 00:21 | 21.03477 | -86.87098 | 23 ft | 16 kts | 304° |
| 2026-04-28 00:21 | 21.03536 | -86.87194 | 23 ft | 15 kts | 302° |
| 2026-04-28 00:22 | 21.03591 | -86.87287 | 25 ft | 15 kts | 303° |
| 2026-04-28 00:22 | 21.03647 | -86.87375 | 24 ft | 14 kts | 305° |
| 2026-04-28 00:22 | 21.03701 | -86.87458 | 24 ft | 13 kts | 303° |
| 2026-04-28 00:22 | 21.03752 | -86.87541 | 28 ft | 13 kts | 303° |
| 2026-04-28 00:23 | 21.03801 | -86.87623 | 25 ft | 13 kts | 302° |
| 2026-04-28 00:23 | 21.03850 | -86.87702 | 26 ft | 12 kts | 304° |
| 2026-04-28 00:23 | 21.03898 | -86.87778 | 26 ft | 12 kts | 304° |
| 2026-04-28 00:23 | 21.03970 | -86.87819 | 27 ft | 12 kts | 348° |
| 2026-04-28 00:24 | 21.04006 | -86.87775 | 25 ft | 9 kts | 81° |
| 2026-04-28 00:24 | 21.04018 | -86.87716 | 26 ft | 0 kts | 79° |
| 2026-04-28 00:24 | 21.04019 | -86.87713 | 25 ft | 0 kts | 78° |